sensor_id;sensor_type;location;lat;lon;timestamp;pressure;altitude;pressure_sealevel;temperature;humidity
34034;BME280;63481;52.588;22.472;2024-01-10T00:02:28;101864.58;;;-8.52;100.00
34034;BME280;63481;52.588;22.472;2024-01-10T00:07:30;101850.60;;;-8.58;100.00
34034;BME280;63481;52.588;22.472;2024-01-10T00:12:32;101854.52;;;-8.62;100.00
34034;BME280;63481;52.588;22.472;2024-01-10T00:17:39;101844.70;;;-8.67;100.00
34034;BME280;63481;52.588;22.472;2024-01-10T00:22:42;101838.19;;;-8.68;100.00
34034;BME280;63481;52.588;22.472;2024-01-10T00:27:44;101840.54;;;-8.72;100.00
34034;BME280;63481;52.588;22.472;2024-01-10T00:32:46;101835.77;;;-8.74;100.00
34034;BME280;63481;52.588;22.472;2024-01-10T00:37:48;101828.65;;;-8.78;100.00
34034;BME280;63481;52.588;22.472;2024-01-10T00:42:50;101823.45;;;-8.76;100.00
34034;BME280;63481;52.588;22.472;2024-01-10T00:47:52;101816.94;;;-8.78;100.00
34034;BME280;63481;52.588;22.472;2024-01-10T00:52:54;101821.45;;;-8.79;100.00
34034;BME280;63481;52.588;22.472;2024-01-10T00:57:56;101820.79;;;-8.80;100.00
34034;BME280;63481;52.588;22.472;2024-01-10T01:02:58;101822.64;;;-8.84;100.00
34034;BME280;63481;52.588;22.472;2024-01-10T01:08:00;101822.17;;;-8.86;100.00
34034;BME280;63481;52.588;22.472;2024-01-10T01:13:04;101825.52;;;-8.88;100.00
34034;BME280;63481;52.588;22.472;2024-01-10T01:18:06;101821.71;;;-8.88;100.00
34034;BME280;63481;52.588;22.472;2024-01-10T01:23:08;101818.36;;;-8.96;100.00
34034;BME280;63481;52.588;22.472;2024-01-10T01:28:11;101813.09;;;-8.88;100.00
34034;BME280;63481;52.588;22.472;2024-01-10T01:33:13;101806.70;;;-8.87;100.00
34034;BME280;63481;52.588;22.472;2024-01-10T01:38:15;101800.28;;;-8.91;100.00
34034;BME280;63481;52.588;22.472;2024-01-10T01:43:19;101805.67;;;-8.87;100.00
34034;BME280;63481;52.588;22.472;2024-01-10T01:48:23;101797.53;;;-8.91;100.00
34034;BME280;63481;52.588;22.472;2024-01-10T01:53:26;101800.33;;;-8.99;100.00
34034;BME280;63481;52.588;22.472;2024-01-10T01:58:30;101790.25;;;-9.01;100.00
34034;BME280;63481;52.588;22.472;2024-01-10T02:03:32;101782.06;;;-9.04;100.00
34034;BME280;63481;52.588;22.472;2024-01-10T02:08:35;101779.66;;;-9.11;100.00
34034;BME280;63481;52.588;22.472;2024-01-10T02:13:37;101780.37;;;-9.11;100.00
34034;BME280;63481;52.588;22.472;2024-01-10T02:18:40;101780.12;;;-9.21;100.00
34034;BME280;63481;52.588;22.472;2024-01-10T02:23:42;101782.46;;;-9.30;100.00
34034;BME280;63481;52.588;22.472;2024-01-10T02:28:44;101792.64;;;-9.31;100.00
34034;BME280;63481;52.588;22.472;2024-01-10T02:33:46;101787.14;;;-9.31;100.00
34034;BME280;63481;52.588;22.472;2024-01-10T02:38:48;101786.64;;;-9.32;100.00
34034;BME280;63481;52.588;22.472;2024-01-10T02:43:51;101797.49;;;-9.38;100.00
34034;BME280;63481;52.588;22.472;2024-01-10T02:48:54;101796.51;;;-9.46;100.00
34034;BME280;63481;52.588;22.472;2024-01-10T02:53:59;101798.44;;;-9.47;100.00
34034;BME280;63481;52.588;22.472;2024-01-10T02:59:02;101799.34;;;-9.49;100.00
34034;BME280;63481;52.588;22.472;2024-01-10T03:04:04;101798.42;;;-9.46;100.00
34034;BME280;63481;52.588;22.472;2024-01-10T03:09:07;101800.23;;;-9.49;100.00
34034;BME280;63481;52.588;22.472;2024-01-10T03:14:10;101795.20;;;-9.30;100.00
34034;BME280;63481;52.588;22.472;2024-01-10T03:19:13;101784.12;;;-9.22;100.00
34034;BME280;63481;52.588;22.472;2024-01-10T03:24:15;101784.25;;;-9.20;100.00
34034;BME280;63481;52.588;22.472;2024-01-10T03:29:17;101781.56;;;-9.11;100.00
34034;BME280;63481;52.588;22.472;2024-01-10T03:34:19;101784.23;;;-9.19;100.00
34034;BME280;63481;52.588;22.472;2024-01-10T03:39:21;101779.57;;;-9.14;100.00
34034;BME280;63481;52.588;22.472;2024-01-10T03:44:23;101775.88;;;-9.17;100.00
34034;BME280;63481;52.588;22.472;2024-01-10T03:49:26;101769.29;;;-9.15;100.00
34034;BME280;63481;52.588;22.472;2024-01-10T03:54:27;101771.66;;;-9.26;100.00
34034;BME280;63481;52.588;22.472;2024-01-10T03:59:30;101772.77;;;-9.23;100.00
34034;BME280;63481;52.588;22.472;2024-01-10T04:04:32;101769.66;;;-9.22;100.00
34034;BME280;63481;52.588;22.472;2024-01-10T04:09:34;101769.20;;;-9.30;100.00
34034;BME280;63481;52.588;22.472;2024-01-10T04:14:36;101761.48;;;-9.31;100.00
34034;BME280;63481;52.588;22.472;2024-01-10T04:19:38;101764.83;;;-9.39;100.00
34034;BME280;63481;52.588;22.472;2024-01-10T04:24:40;101762.07;;;-9.45;100.00
34034;BME280;63481;52.588;22.472;2024-01-10T04:29:42;101760.09;;;-9.54;100.00
34034;BME280;63481;52.588;22.472;2024-01-10T04:34:44;101762.85;;;-9.48;100.00
34034;BME280;63481;52.588;22.472;2024-01-10T04:39:46;101758.84;;;-9.47;100.00
34034;BME280;63481;52.588;22.472;2024-01-10T04:44:48;101756.54;;;-9.44;100.00
34034;BME280;63481;52.588;22.472;2024-01-10T04:49:51;101749.36;;;-9.40;100.00
34034;BME280;63481;52.588;22.472;2024-01-10T04:54:53;101749.25;;;-9.36;100.00
34034;BME280;63481;52.588;22.472;2024-01-10T04:59:55;101752.04;;;-9.32;100.00
34034;BME280;63481;52.588;22.472;2024-01-10T05:04:58;101756.83;;;-9.30;100.00
34034;BME280;63481;52.588;22.472;2024-01-10T05:10:00;101761.98;;;-9.24;100.00
34034;BME280;63481;52.588;22.472;2024-01-10T05:15:02;101752.84;;;-9.24;100.00
34034;BME280;63481;52.588;22.472;2024-01-10T05:20:06;101748.94;;;-9.26;100.00
34034;BME280;63481;52.588;22.472;2024-01-10T05:25:08;101744.24;;;-9.19;100.00
34034;BME280;63481;52.588;22.472;2024-01-10T05:30:11;101740.80;;;-9.18;100.00
34034;BME280;63481;52.588;22.472;2024-01-10T05:35:14;101753.52;;;-9.06;100.00
34034;BME280;63481;52.588;22.472;2024-01-10T05:40:16;101764.17;;;-8.99;100.00
34034;BME280;63481;52.588;22.472;2024-01-10T05:45:18;101764.36;;;-8.99;100.00
34034;BME280;63481;52.588;22.472;2024-01-10T05:50:20;101768.46;;;-8.93;100.00
34034;BME280;63481;52.588;22.472;2024-01-10T05:55:23;101762.88;;;-8.91;100.00
34034;BME280;63481;52.588;22.472;2024-01-10T06:00:25;101756.15;;;-8.84;100.00
34034;BME280;63481;52.588;22.472;2024-01-10T06:05:27;101755.25;;;-8.78;100.00
34034;BME280;63481;52.588;22.472;2024-01-10T06:10:29;101760.95;;;-8.73;100.00
34034;BME280;63481;52.588;22.472;2024-01-10T06:15:31;101763.13;;;-8.66;100.00
34034;BME280;63481;52.588;22.472;2024-01-10T06:20:34;101761.02;;;-8.59;100.00
34034;BME280;63481;52.588;22.472;2024-01-10T06:25:39;101758.96;;;-8.48;100.00
34034;BME280;63481;52.588;22.472;2024-01-10T06:30:41;101761.41;;;-8.44;100.00
34034;BME280;63481;52.588;22.472;2024-01-10T06:35:43;101766.64;;;-8.36;100.00
34034;BME280;63481;52.588;22.472;2024-01-10T06:40:46;101758.23;;;-8.31;100.00
34034;BME280;63481;52.588;22.472;2024-01-10T06:45:49;101764.77;;;-8.21;100.00
34034;BME280;63481;52.588;22.472;2024-01-10T06:50:51;101765.73;;;-8.20;100.00
34034;BME280;63481;52.588;22.472;2024-01-10T06:55:54;101767.17;;;-8.16;100.00
34034;BME280;63481;52.588;22.472;2024-01-10T07:00:56;101762.36;;;-8.16;100.00
34034;BME280;63481;52.588;22.472;2024-01-10T07:05:58;101757.77;;;-8.08;100.00
34034;BME280;63481;52.588;22.472;2024-01-10T07:11:00;101753.23;;;-7.97;100.00
34034;BME280;63481;52.588;22.472;2024-01-10T07:16:03;101747.48;;;-7.85;100.00
34034;BME280;63481;52.588;22.472;2024-01-10T07:21:05;101749.86;;;-7.84;100.00
34034;BME280;63481;52.588;22.472;2024-01-10T07:26:07;101745.42;;;-7.80;100.00
34034;BME280;63481;52.588;22.472;2024-01-10T07:31:11;101740.34;;;-7.78;100.00
34034;BME280;63481;52.588;22.472;2024-01-10T07:36:13;101728.12;;;-7.84;100.00
34034;BME280;63481;52.588;22.472;2024-01-10T07:41:15;101742.45;;;-7.84;100.00
34034;BME280;63481;52.588;22.472;2024-01-10T07:46:17;101748.70;;;-7.80;100.00
34034;BME280;63481;52.588;22.472;2024-01-10T07:51:19;101744.64;;;-7.83;100.00
34034;BME280;63481;52.588;22.472;2024-01-10T07:56:22;101748.26;;;-7.88;100.00
34034;BME280;63481;52.588;22.472;2024-01-10T08:01:24;101764.77;;;-7.86;100.00
34034;BME280;63481;52.588;22.472;2024-01-10T08:06:26;101770.65;;;-7.81;100.00
34034;BME280;63481;52.588;22.472;2024-01-10T08:11:28;101771.14;;;-7.71;100.00
34034;BME280;63481;52.588;22.472;2024-01-10T08:16:30;101768.79;;;-7.62;100.00
34034;BME280;63481;52.588;22.472;2024-01-10T08:21:34;101772.73;;;-7.62;100.00
34034;BME280;63481;52.588;22.472;2024-01-10T08:26:36;101780.89;;;-7.58;100.00
34034;BME280;63481;52.588;22.472;2024-01-10T08:31:39;101782.23;;;-7.43;100.00
34034;BME280;63481;52.588;22.472;2024-01-10T08:36:41;101784.05;;;-7.36;100.00
34034;BME280;63481;52.588;22.472;2024-01-10T08:41:44;101789.39;;;-7.31;100.00
34034;BME280;63481;52.588;22.472;2024-01-10T08:46:46;101789.88;;;-7.25;100.00
34034;BME280;63481;52.588;22.472;2024-01-10T08:51:48;101786.03;;;-7.10;100.00
34034;BME280;63481;52.588;22.472;2024-01-10T08:56:51;101783.41;;;-7.00;100.00
34034;BME280;63481;52.588;22.472;2024-01-10T09:01:53;101788.06;;;-6.90;100.00
34034;BME280;63481;52.588;22.472;2024-01-10T09:06:55;101788.65;;;-6.83;100.00
34034;BME280;63481;52.588;22.472;2024-01-10T09:11:57;101780.42;;;-6.76;100.00
34034;BME280;63481;52.588;22.472;2024-01-10T09:16:59;101783.23;;;-6.82;100.00
34034;BME280;63481;52.588;22.472;2024-01-10T09:22:04;101780.05;;;-6.71;100.00
34034;BME280;63481;52.588;22.472;2024-01-10T09:27:06;101769.67;;;-6.62;100.00
34034;BME280;63481;52.588;22.472;2024-01-10T09:32:09;101761.08;;;-6.59;100.00
34034;BME280;63481;52.588;22.472;2024-01-10T09:37:11;101756.67;;;-6.48;100.00
34034;BME280;63481;52.588;22.472;2024-01-10T09:42:14;101749.60;;;-6.58;100.00
34034;BME280;63481;52.588;22.472;2024-01-10T09:47:18;101736.98;;;-6.54;100.00
34034;BME280;63481;52.588;22.472;2024-01-10T09:52:26;101729.58;;;-6.50;100.00
34034;BME280;63481;52.588;22.472;2024-01-10T09:57:29;101728.23;;;-6.34;100.00
34034;BME280;63481;52.588;22.472;2024-01-10T10:02:33;101732.33;;;-6.41;100.00
34034;BME280;63481;52.588;22.472;2024-01-10T10:07:45;101725.23;;;-6.45;100.00
34034;BME280;63481;52.588;22.472;2024-01-10T10:12:49;101732.24;;;-6.35;100.00
34034;BME280;63481;52.588;22.472;2024-01-10T10:17:52;101733.23;;;-6.34;100.00
34034;BME280;63481;52.588;22.472;2024-01-10T10:28:07;101739.98;;;-6.18;100.00
34034;BME280;63481;52.588;22.472;2024-01-10T10:33:09;101736.58;;;-6.06;100.00
34034;BME280;63481;52.588;22.472;2024-01-10T10:38:12;101734.19;;;-6.03;100.00
34034;BME280;63481;52.588;22.472;2024-01-10T10:43:18;101729.14;;;-6.06;100.00
34034;BME280;63481;52.588;22.472;2024-01-10T10:48:21;101722.99;;;-5.92;100.00
34034;BME280;63481;52.588;22.472;2024-01-10T10:53:25;101712.11;;;-5.85;100.00
34034;BME280;63481;52.588;22.472;2024-01-10T10:58:32;101701.59;;;-5.79;100.00
34034;BME280;63481;52.588;22.472;2024-01-10T11:03:36;101705.20;;;-5.78;100.00
34034;BME280;63481;52.588;22.472;2024-01-10T11:08:43;101699.58;;;-5.84;100.00
34034;BME280;63481;52.588;22.472;2024-01-10T11:24:36;101685.94;;;-5.31;100.00
34034;BME280;63481;52.588;22.472;2024-01-10T11:29:39;101684.99;;;-5.22;100.00
34034;BME280;63481;52.588;22.472;2024-01-10T11:34:54;101681.42;;;-5.31;100.00
34034;BME280;63481;52.588;22.472;2024-01-10T11:39:57;101675.16;;;-5.50;100.00
34034;BME280;63481;52.588;22.472;2024-01-10T11:44:59;101672.53;;;-5.57;100.00
34034;BME280;63481;52.588;22.472;2024-01-10T11:50:03;101668.00;;;-5.60;100.00
34034;BME280;63481;52.588;22.472;2024-01-10T11:55:09;101672.52;;;-5.53;100.00
34034;BME280;63481;52.588;22.472;2024-01-10T12:00:32;101668.91;;;-5.64;100.00
34034;BME280;63481;52.588;22.472;2024-01-10T12:05:34;101661.10;;;-5.53;100.00
34034;BME280;63481;52.588;22.472;2024-01-10T12:10:36;101666.21;;;-5.62;100.00
34034;BME280;63481;52.588;22.472;2024-01-10T12:15:40;101670.09;;;-5.64;100.00
34034;BME280;63481;52.588;22.472;2024-01-10T12:20:42;101661.58;;;-5.56;100.00
34034;BME280;63481;52.588;22.472;2024-01-10T12:25:48;101650.98;;;-5.44;100.00
34034;BME280;63481;52.588;22.472;2024-01-10T12:30:51;101644.54;;;-5.39;100.00
34034;BME280;63481;52.588;22.472;2024-01-10T12:36:07;101641.98;;;-5.29;100.00
34034;BME280;63481;52.588;22.472;2024-01-10T12:41:11;101639.89;;;-5.29;100.00
34034;BME280;63481;52.588;22.472;2024-01-10T12:46:13;101627.61;;;-5.15;100.00
34034;BME280;63481;52.588;22.472;2024-01-10T12:51:15;101624.27;;;-5.18;100.00
34034;BME280;63481;52.588;22.472;2024-01-10T12:56:18;101628.29;;;-5.33;100.00
34034;BME280;63481;52.588;22.472;2024-01-10T13:01:21;101632.30;;;-5.37;100.00
34034;BME280;63481;52.588;22.472;2024-01-10T13:06:25;101627.27;;;-5.36;100.00
34034;BME280;63481;52.588;22.472;2024-01-10T13:11:27;101623.59;;;-5.47;100.00
34034;BME280;63481;52.588;22.472;2024-01-10T13:16:29;101608.73;;;-5.52;100.00
34034;BME280;63481;52.588;22.472;2024-01-10T13:21:32;101595.93;;;-5.48;100.00
34034;BME280;63481;52.588;22.472;2024-01-10T13:26:34;101591.90;;;-5.55;100.00
34034;BME280;63481;52.588;22.472;2024-01-10T13:31:37;101582.10;;;-5.53;100.00
34034;BME280;63481;52.588;22.472;2024-01-10T13:36:39;101572.20;;;-5.49;100.00
34034;BME280;63481;52.588;22.472;2024-01-10T13:41:41;101563.08;;;-5.50;100.00
34034;BME280;63481;52.588;22.472;2024-01-10T13:46:43;101555.05;;;-5.56;100.00
34034;BME280;63481;52.588;22.472;2024-01-10T13:51:45;101558.93;;;-5.57;100.00
34034;BME280;63481;52.588;22.472;2024-01-10T13:56:47;101560.20;;;-5.62;100.00
34034;BME280;63481;52.588;22.472;2024-01-10T14:01:49;101558.22;;;-5.60;100.00
34034;BME280;63481;52.588;22.472;2024-01-10T14:06:51;101560.89;;;-5.58;100.00
34034;BME280;63481;52.588;22.472;2024-01-10T14:11:54;101556.16;;;-5.58;100.00
34034;BME280;63481;52.588;22.472;2024-01-10T14:16:56;101554.14;;;-5.66;100.00
34034;BME280;63481;52.588;22.472;2024-01-10T14:21:58;101552.84;;;-5.61;100.00
34034;BME280;63481;52.588;22.472;2024-01-10T14:27:00;101547.62;;;-5.60;100.00
34034;BME280;63481;52.588;22.472;2024-01-10T14:32:03;101552.68;;;-5.68;100.00
34034;BME280;63481;52.588;22.472;2024-01-10T14:37:06;101550.27;;;-5.72;100.00
34034;BME280;63481;52.588;22.472;2024-01-10T14:42:09;101553.33;;;-5.74;100.00
34034;BME280;63481;52.588;22.472;2024-01-10T14:47:11;101552.86;;;-5.72;100.00
34034;BME280;63481;52.588;22.472;2024-01-10T14:52:13;101557.02;;;-5.79;100.00
34034;BME280;63481;52.588;22.472;2024-01-10T14:57:15;101548.60;;;-5.80;100.00
34034;BME280;63481;52.588;22.472;2024-01-10T15:02:18;101538.97;;;-5.85;100.00
34034;BME280;63481;52.588;22.472;2024-01-10T15:07:20;101543.20;;;-5.87;100.00
34034;BME280;63481;52.588;22.472;2024-01-10T15:12:23;101546.07;;;-5.85;100.00
34034;BME280;63481;52.588;22.472;2024-01-10T15:17:26;101546.79;;;-5.82;100.00
34034;BME280;63481;52.588;22.472;2024-01-10T15:22:28;101540.13;;;-5.81;100.00
34034;BME280;63481;52.588;22.472;2024-01-10T15:27:30;101542.29;;;-5.83;100.00
34034;BME280;63481;52.588;22.472;2024-01-10T15:32:33;101547.41;;;-5.77;100.00
34034;BME280;63481;52.588;22.472;2024-01-10T15:37:35;101543.49;;;-5.75;100.00
34034;BME280;63481;52.588;22.472;2024-01-10T15:42:37;101535.41;;;-5.76;100.00
34034;BME280;63481;52.588;22.472;2024-01-10T15:47:40;101530.33;;;-5.75;100.00
34034;BME280;63481;52.588;22.472;2024-01-10T15:52:43;101520.38;;;-5.77;100.00
34034;BME280;63481;52.588;22.472;2024-01-10T15:57:46;101499.91;;;-5.80;100.00
34034;BME280;63481;52.588;22.472;2024-01-10T16:02:48;101495.65;;;-5.74;100.00
34034;BME280;63481;52.588;22.472;2024-01-10T16:07:50;101490.16;;;-5.75;100.00
34034;BME280;63481;52.588;22.472;2024-01-10T16:12:53;101478.52;;;-5.74;100.00
34034;BME280;63481;52.588;22.472;2024-01-10T16:17:55;101476.00;;;-5.69;100.00
34034;BME280;63481;52.588;22.472;2024-01-10T16:22:58;101473.52;;;-5.64;100.00
34034;BME280;63481;52.588;22.472;2024-01-10T16:28:00;101461.66;;;-5.62;100.00
34034;BME280;63481;52.588;22.472;2024-01-10T16:33:03;101458.67;;;-5.62;100.00
34034;BME280;63481;52.588;22.472;2024-01-10T16:38:05;101455.11;;;-5.63;100.00
34034;BME280;63481;52.588;22.472;2024-01-10T16:43:07;101447.64;;;-5.66;100.00
34034;BME280;63481;52.588;22.472;2024-01-10T16:48:10;101437.61;;;-5.59;100.00
34034;BME280;63481;52.588;22.472;2024-01-10T16:53:13;101430.75;;;-5.57;100.00
34034;BME280;63481;52.588;22.472;2024-01-10T16:58:15;101436.36;;;-5.52;100.00
34034;BME280;63481;52.588;22.472;2024-01-10T17:03:18;101426.17;;;-5.52;100.00
34034;BME280;63481;52.588;22.472;2024-01-10T17:08:21;101429.05;;;-5.58;100.00
34034;BME280;63481;52.588;22.472;2024-01-10T17:13:24;101421.58;;;-5.54;100.00
34034;BME280;63481;52.588;22.472;2024-01-10T17:18:27;101418.78;;;-5.50;100.00
34034;BME280;63481;52.588;22.472;2024-01-10T17:23:30;101414.44;;;-5.53;100.00
34034;BME280;63481;52.588;22.472;2024-01-10T17:28:33;101419.57;;;-5.55;100.00
34034;BME280;63481;52.588;22.472;2024-01-10T17:33:35;101420.07;;;-5.48;100.00
34034;BME280;63481;52.588;22.472;2024-01-10T17:38:38;101418.18;;;-5.42;100.00
34034;BME280;63481;52.588;22.472;2024-01-10T17:43:40;101417.34;;;-5.38;100.00
34034;BME280;63481;52.588;22.472;2024-01-10T17:48:43;101410.42;;;-5.46;100.00
34034;BME280;63481;52.588;22.472;2024-01-10T17:53:45;101405.63;;;-5.44;100.00
34034;BME280;63481;52.588;22.472;2024-01-10T17:58:47;101399.32;;;-5.42;100.00
34034;BME280;63481;52.588;22.472;2024-01-10T18:03:51;101393.42;;;-5.46;100.00
34034;BME280;63481;52.588;22.472;2024-01-10T18:08:53;101381.33;;;-5.46;100.00
34034;BME280;63481;52.588;22.472;2024-01-10T18:13:55;101373.70;;;-5.39;100.00
34034;BME280;63481;52.588;22.472;2024-01-10T18:18:58;101362.19;;;-5.37;100.00
34034;BME280;63481;52.588;22.472;2024-01-10T18:24:00;101359.13;;;-5.38;100.00
34034;BME280;63481;52.588;22.472;2024-01-10T18:29:02;101338.77;;;-5.40;100.00
34034;BME280;63481;52.588;22.472;2024-01-10T18:34:04;101327.42;;;-5.39;100.00
34034;BME280;63481;52.588;22.472;2024-01-10T18:39:08;101329.52;;;-5.32;100.00
34034;BME280;63481;52.588;22.472;2024-01-10T18:44:11;101324.02;;;-5.30;100.00
34034;BME280;63481;52.588;22.472;2024-01-10T18:49:15;101337.06;;;-5.31;100.00
34034;BME280;63481;52.588;22.472;2024-01-10T18:54:17;101347.02;;;-5.29;100.00
34034;BME280;63481;52.588;22.472;2024-01-10T18:59:19;101343.75;;;-5.20;100.00
34034;BME280;63481;52.588;22.472;2024-01-10T19:04:21;101338.21;;;-5.16;100.00
34034;BME280;63481;52.588;22.472;2024-01-10T19:09:24;101336.66;;;-5.14;100.00
34034;BME280;63481;52.588;22.472;2024-01-10T19:14:26;101334.94;;;-5.07;100.00
34034;BME280;63481;52.588;22.472;2024-01-10T19:19:28;101326.50;;;-5.05;100.00
34034;BME280;63481;52.588;22.472;2024-01-10T19:24:30;101315.42;;;-5.02;100.00
34034;BME280;63481;52.588;22.472;2024-01-10T19:29:33;101299.29;;;-5.05;100.00
34034;BME280;63481;52.588;22.472;2024-01-10T19:34:35;101310.95;;;-5.03;100.00
34034;BME280;63481;52.588;22.472;2024-01-10T19:39:37;101312.80;;;-5.02;100.00
34034;BME280;63481;52.588;22.472;2024-01-10T19:44:39;101305.20;;;-4.99;100.00
34034;BME280;63481;52.588;22.472;2024-01-10T19:49:42;101298.78;;;-5.02;100.00
34034;BME280;63481;52.588;22.472;2024-01-10T19:54:44;101301.90;;;-4.99;100.00
34034;BME280;63481;52.588;22.472;2024-01-10T19:59:46;101310.20;;;-4.95;100.00
34034;BME280;63481;52.588;22.472;2024-01-10T20:04:48;101302.68;;;-4.94;100.00
34034;BME280;63481;52.588;22.472;2024-01-10T20:09:50;101304.42;;;-4.94;100.00
34034;BME280;63481;52.588;22.472;2024-01-10T20:14:52;101288.65;;;-4.88;100.00
34034;BME280;63481;52.588;22.472;2024-01-10T20:19:57;101277.16;;;-4.87;100.00
34034;BME280;63481;52.588;22.472;2024-01-10T20:25:00;101257.64;;;-4.82;100.00
34034;BME280;63481;52.588;22.472;2024-01-10T20:30:03;101253.05;;;-4.87;100.00
34034;BME280;63481;52.588;22.472;2024-01-10T20:35:06;101244.44;;;-4.88;100.00
34034;BME280;63481;52.588;22.472;2024-01-10T20:40:09;101237.52;;;-4.85;100.00
34034;BME280;63481;52.588;22.472;2024-01-10T20:45:12;101231.74;;;-4.81;100.00
34034;BME280;63481;52.588;22.472;2024-01-10T20:50:18;101216.05;;;-4.82;100.00
34034;BME280;63481;52.588;22.472;2024-01-10T20:55:20;101211.79;;;-4.87;100.00
34034;BME280;63481;52.588;22.472;2024-01-10T21:00:22;101211.55;;;-4.80;100.00
34034;BME280;63481;52.588;22.472;2024-01-10T21:05:26;101210.32;;;-4.76;100.00
34034;BME280;63481;52.588;22.472;2024-01-10T21:10:29;101215.19;;;-4.73;100.00
34034;BME280;63481;52.588;22.472;2024-01-10T21:15:31;101208.02;;;-4.75;100.00
34034;BME280;63481;52.588;22.472;2024-01-10T21:20:35;101208.67;;;-4.69;100.00
34034;BME280;63481;52.588;22.472;2024-01-10T21:25:37;101198.65;;;-4.69;100.00
34034;BME280;63481;52.588;22.472;2024-01-10T21:30:39;101189.27;;;-4.69;100.00
34034;BME280;63481;52.588;22.472;2024-01-10T21:35:41;101189.83;;;-4.70;100.00
34034;BME280;63481;52.588;22.472;2024-01-10T21:40:44;101185.11;;;-4.69;100.00
34034;BME280;63481;52.588;22.472;2024-01-10T21:45:46;101176.64;;;-4.63;100.00
34034;BME280;63481;52.588;22.472;2024-01-10T21:50:48;101160.54;;;-4.64;100.00
34034;BME280;63481;52.588;22.472;2024-01-10T21:55:52;101149.61;;;-4.64;100.00
34034;BME280;63481;52.588;22.472;2024-01-10T22:00:54;101136.71;;;-4.63;100.00
34034;BME280;63481;52.588;22.472;2024-01-10T22:05:56;101113.70;;;-4.61;100.00
34034;BME280;63481;52.588;22.472;2024-01-10T22:10:58;101111.73;;;-4.63;100.00
34034;BME280;63481;52.588;22.472;2024-01-10T22:16:01;101098.83;;;-4.59;100.00
34034;BME280;63481;52.588;22.472;2024-01-10T22:21:03;101101.39;;;-4.58;100.00
34034;BME280;63481;52.588;22.472;2024-01-10T22:26:05;101085.31;;;-4.59;100.00
34034;BME280;63481;52.588;22.472;2024-01-10T22:31:07;101076.66;;;-4.57;100.00
34034;BME280;63481;52.588;22.472;2024-01-10T22:36:09;101055.66;;;-4.57;100.00
34034;BME280;63481;52.588;22.472;2024-01-10T22:41:12;101052.99;;;-4.56;100.00
34034;BME280;63481;52.588;22.472;2024-01-10T22:46:15;101039.08;;;-4.57;100.00
34034;BME280;63481;52.588;22.472;2024-01-10T22:51:18;101030.52;;;-4.57;100.00
34034;BME280;63481;52.588;22.472;2024-01-10T22:56:20;101019.86;;;-4.61;100.00
34034;BME280;63481;52.588;22.472;2024-01-10T23:01:22;101003.66;;;-4.66;100.00
34034;BME280;63481;52.588;22.472;2024-01-10T23:06:27;100988.55;;;-4.68;100.00
34034;BME280;63481;52.588;22.472;2024-01-10T23:11:29;100971.20;;;-4.71;100.00
34034;BME280;63481;52.588;22.472;2024-01-10T23:16:31;100963.66;;;-4.70;100.00
34034;BME280;63481;52.588;22.472;2024-01-10T23:21:34;100969.97;;;-4.77;100.00
34034;BME280;63481;52.588;22.472;2024-01-10T23:26:38;100947.50;;;-4.72;100.00
34034;BME280;63481;52.588;22.472;2024-01-10T23:31:40;100954.92;;;-4.72;100.00
34034;BME280;63481;52.588;22.472;2024-01-10T23:36:42;100934.52;;;-4.75;100.00
34034;BME280;63481;52.588;22.472;2024-01-10T23:41:44;100921.08;;;-4.77;100.00
34034;BME280;63481;52.588;22.472;2024-01-10T23:46:48;100916.91;;;-4.80;100.00
34034;BME280;63481;52.588;22.472;2024-01-10T23:51:52;100921.10;;;-4.77;100.00
34034;BME280;63481;52.588;22.472;2024-01-10T23:56:54;100908.77;;;-4.83;100.00
